createdAt,value
2022-08-28T00:00:32.680Z,11.07
2022-08-28T00:03:01.386Z,11.77
2022-08-28T00:05:32.879Z,11.70
2022-08-28T00:08:02.792Z,11.33
2022-08-28T00:10:31.233Z,12.17
2022-08-28T00:13:00.031Z,10.60
2022-08-28T00:15:30.860Z,14.80
2022-08-28T00:17:58.858Z,9.17
2022-08-28T00:20:28.076Z,11.13
2022-08-28T00:22:57.748Z,13.37
2022-08-28T00:25:27.593Z,13.07
2022-08-28T00:27:57.533Z,10.33
2022-08-28T00:30:29.866Z,12.20
2022-08-28T00:33:02.107Z,12.43
2022-08-28T00:35:30.048Z,10.40
2022-08-28T00:37:59.360Z,11.53
2022-08-28T00:40:33.133Z,13.47
2022-08-28T00:43:02.689Z,10.67
2022-08-28T00:45:36.011Z,14.70
2022-08-28T00:48:06.901Z,7.63
2022-08-28T00:50:50.635Z,14.63
2022-08-28T00:53:20.770Z,8.20
2022-08-28T00:55:51.551Z,9.57
2022-08-28T00:58:20.223Z,10.13
2022-08-28T01:00:48.117Z,8.37
2022-08-28T01:03:15.992Z,12.17
2022-08-28T01:05:47.932Z,11.00
2022-08-28T01:08:16.023Z,9.73
2022-08-28T01:10:54.807Z,11.07
2022-08-28T01:13:24.812Z,9.57
2022-08-28T01:15:53.164Z,11.00
2022-08-28T01:18:22.472Z,11.83
2022-08-28T01:20:58.159Z,9.17
2022-08-28T01:23:40.524Z,10.30
2022-08-28T01:26:10.959Z,12.63
2022-08-28T01:28:40.326Z,9.70
2022-08-28T01:31:11.373Z,11.23
2022-08-28T01:33:42.629Z,10.13
2022-08-28T01:36:12.369Z,10.03
2022-08-28T01:38:44.226Z,9.40
2022-08-28T01:41:13.920Z,8.77
2022-08-28T01:43:42.919Z,10.97
2022-08-28T01:46:12.797Z,9.07
2022-08-28T01:48:44.033Z,11.77
2022-08-28T01:51:13.079Z,11.27
2022-08-28T01:53:43.374Z,11.67
2022-08-28T01:56:17.037Z,11.70
2022-08-28T01:58:45.416Z,10.90
2022-08-28T02:01:15.279Z,19.90
2022-08-28T02:03:43.867Z,11.50
2022-08-28T02:06:13.278Z,11.57
2022-08-28T02:08:42.894Z,14.50
2022-08-28T02:11:11.159Z,12.43
2022-08-28T02:13:40.877Z,14.40
2022-08-28T02:16:10.874Z,13.20
2022-08-28T02:18:39.006Z,12.47
2022-08-28T02:21:07.882Z,11.77
2022-08-28T02:23:36.210Z,12.33
2022-08-28T02:26:05.548Z,9.47
2022-08-28T02:28:33.719Z,11.73
2022-08-28T02:31:01.955Z,12.00
2022-08-28T02:33:29.880Z,10.73
2022-08-28T02:35:57.824Z,9.97
2022-08-28T02:38:25.739Z,8.77
2022-08-28T02:40:53.899Z,15.13
2022-08-28T02:43:23.147Z,9.03
2022-08-28T02:45:51.038Z,7.73
2022-08-28T02:48:19.066Z,8.17
2022-08-28T02:50:47.271Z,9.57
2022-08-28T02:53:15.309Z,11.97
2022-08-28T02:55:43.183Z,10.20
2022-08-28T02:58:11.325Z,10.67
2022-08-28T03:00:41.437Z,11.13
2022-08-28T03:03:09.353Z,7.90
2022-08-28T03:05:37.243Z,9.70
2022-08-28T03:08:06.149Z,12.07
2022-08-28T03:10:34.296Z,9.57
2022-08-28T03:13:02.197Z,8.63
2022-08-28T03:15:30.208Z,9.63
2022-08-28T03:17:59.483Z,14.13
2022-08-28T03:20:27.444Z,10.00
2022-08-28T03:23:12.723Z,7.87
2022-08-28T03:25:40.655Z,10.07
2022-08-28T03:28:08.511Z,10.33
2022-08-28T03:30:36.443Z,13.33
2022-08-28T03:33:05.839Z,7.80
2022-08-28T03:35:34.021Z,11.77
2022-08-28T03:38:02.058Z,11.43
2022-08-28T03:40:30.458Z,10.10
2022-08-28T03:42:58.415Z,10.50
2022-08-28T03:45:27.448Z,9.83
2022-08-28T03:47:55.333Z,12.00
2022-08-28T03:50:24.616Z,9.90
2022-08-28T03:52:52.699Z,10.37
2022-08-28T03:55:20.646Z,11.60
2022-08-28T03:57:48.573Z,10.73
2022-08-28T04:00:17.136Z,14.47
2022-08-28T04:02:46.242Z,10.87
2022-08-28T04:05:15.820Z,17.30
2022-08-28T04:07:45.103Z,12.70
2022-08-28T04:10:13.299Z,13.73
2022-08-28T04:12:41.208Z,14.93
2022-08-28T04:15:10.753Z,14.20
2022-08-28T04:17:39.659Z,17.43
2022-08-28T04:20:09.881Z,12.50
2022-08-28T04:22:38.276Z,11.47
2022-08-28T04:25:09.211Z,13.03
2022-08-28T04:27:37.111Z,9.83
2022-08-28T04:30:06.282Z,8.70
2022-08-28T04:32:35.353Z,13.30
2022-08-28T04:35:03.449Z,15.30
2022-08-28T04:37:31.799Z,15.80
2022-08-28T04:40:00.276Z,14.57
2022-08-28T04:42:29.664Z,10.67
2022-08-28T04:45:00.030Z,9.52
2022-08-28T04:47:28.397Z,13.43
2022-08-28T04:49:56.434Z,15.18
2022-08-28T04:52:24.323Z,12.13
2022-08-28T04:54:52.603Z,11.30
2022-08-28T04:57:20.552Z,9.25
2022-08-28T04:59:49.831Z,13.38
2022-08-28T05:02:17.755Z,14.30
2022-08-28T05:04:45.685Z,11.02
2022-08-28T05:07:13.550Z,17.23
2022-08-28T05:09:41.447Z,13.32
2022-08-28T05:12:12.697Z,9.73
2022-08-28T05:14:40.575Z,11.38
2022-08-28T05:17:10.120Z,12.40
2022-08-28T05:19:38.008Z,10.07
2022-08-28T05:22:05.996Z,11.75
2022-08-28T05:24:35.026Z,11.80
2022-08-28T05:27:05.485Z,16.13
2022-08-28T05:29:33.833Z,20.35
2022-08-28T05:32:01.818Z,16.15
2022-08-28T05:34:31.364Z,22.42
2022-08-28T05:36:59.456Z,20.95
2022-08-28T05:39:27.345Z,23.02
2022-08-28T05:41:55.228Z,21.88
2022-08-28T05:44:23.253Z,19.27
2022-08-28T05:46:51.121Z,19.83
2022-08-28T05:49:20.471Z,18.63
2022-08-28T05:51:50.949Z,14.27
2022-08-28T05:54:19.284Z,15.57
2022-08-28T05:56:48.242Z,15.18
2022-08-28T05:59:17.449Z,19.08
2022-08-28T06:01:47.502Z,11.35
2022-08-28T06:04:18.643Z,12.25
2022-08-28T06:06:49.423Z,18.05
2022-08-28T06:09:25.331Z,12.57
2022-08-28T06:11:57.197Z,13.88
2022-08-28T06:14:25.792Z,15.88
2022-08-28T06:16:56.051Z,12.48
2022-08-28T06:19:26.154Z,12.50
2022-08-28T06:21:57.235Z,14.18
2022-08-28T06:24:28.000Z,12.40
2022-08-28T06:26:58.073Z,11.68
2022-08-28T06:29:27.939Z,15.00
2022-08-28T06:31:58.138Z,15.25
2022-08-28T06:34:26.341Z,10.38
2022-08-28T06:36:54.848Z,12.70
2022-08-28T06:39:23.420Z,12.88
2022-08-28T06:41:53.281Z,11.43
2022-08-28T06:44:22.104Z,9.38
2022-08-28T06:46:51.967Z,10.00
2022-08-28T06:49:20.067Z,9.77
2022-08-28T06:51:48.173Z,11.65
2022-08-28T06:54:22.272Z,12.80
2022-08-28T06:56:53.211Z,11.90
2022-08-28T06:59:21.293Z,12.23
2022-08-28T07:01:49.335Z,11.77
2022-08-28T07:04:17.358Z,15.60
2022-08-28T07:06:53.801Z,12.35
2022-08-28T07:09:22.656Z,12.52
2022-08-28T07:11:52.196Z,11.18
2022-08-28T07:14:20.378Z,12.82
2022-08-28T07:16:48.281Z,13.10
2022-08-28T07:19:16.358Z,10.77
2022-08-28T07:21:45.885Z,12.05
2022-08-28T07:24:16.462Z,14.35
2022-08-28T07:26:45.665Z,11.40
2022-08-28T07:29:15.239Z,11.70
2022-08-28T07:31:47.422Z,15.70
2022-08-28T07:34:16.483Z,13.88
2022-08-28T07:36:44.657Z,14.55
2022-08-28T07:39:14.043Z,11.27
2022-08-28T07:41:43.627Z,12.50
2022-08-28T07:44:33.512Z,14.38
2022-08-28T07:47:04.297Z,13.05
2022-08-28T07:49:33.694Z,13.95
2022-08-28T07:52:01.834Z,12.00
2022-08-28T07:54:29.764Z,13.82
2022-08-28T07:56:57.711Z,13.07
2022-08-28T07:59:30.516Z,16.10
2022-08-28T08:02:05.284Z,13.88
2022-08-28T08:04:33.194Z,13.18
2022-08-28T08:07:03.402Z,12.40
2022-08-28T08:09:31.350Z,15.45
2022-08-28T08:11:59.271Z,14.18
2022-08-28T08:14:29.571Z,16.45
2022-08-28T08:16:57.467Z,17.42
2022-08-28T08:19:25.412Z,13.75
2022-08-28T08:21:54.864Z,49.70
2022-08-28T08:24:26.698Z,17.90
2022-08-28T08:26:59.610Z,12.52
2022-08-28T08:29:32.404Z,11.15
2022-08-28T08:32:05.640Z,11.18
2022-08-28T08:34:36.543Z,13.80
2022-08-28T08:37:05.582Z,14.00
2022-08-28T08:39:33.948Z,12.27
2022-08-28T08:42:04.412Z,19.45
2022-08-28T08:44:37.816Z,14.07
2022-08-28T08:47:14.894Z,13.75
2022-08-28T08:49:50.663Z,12.38
2022-08-28T08:52:30.333Z,13.45
2022-08-28T08:55:15.103Z,13.93
2022-08-28T08:57:49.153Z,17.85
2022-08-28T09:00:19.912Z,11.30
2022-08-28T09:02:56.064Z,11.18
2022-08-28T09:05:29.773Z,19.13
2022-08-28T09:08:02.595Z,10.57
2022-08-28T09:10:38.813Z,13.35
2022-08-28T09:13:17.751Z,14.10
2022-08-28T09:15:50.801Z,10.60
2022-08-28T09:18:23.620Z,11.75
2022-08-28T09:20:53.389Z,16.35
2022-08-28T09:23:23.192Z,14.50
2022-08-28T09:25:55.447Z,14.10
2022-08-28T09:28:26.091Z,15.65
2022-08-28T09:31:08.089Z,16.50
2022-08-28T09:33:41.859Z,12.52
2022-08-28T09:36:32.733Z,13.32
2022-08-28T09:39:13.066Z,11.15
2022-08-28T09:42:05.077Z,13.75
2022-08-28T09:44:33.096Z,11.52
2022-08-28T09:47:03.050Z,10.48
2022-08-28T09:49:31.771Z,12.55
2022-08-28T09:52:01.654Z,13.65
2022-08-28T09:54:35.648Z,9.73
2022-08-28T11:28:18.731Z,11.88
2022-08-28T11:30:48.832Z,9.55
2022-08-28T11:33:40.901Z,10.50
2022-08-28T11:36:11.636Z,9.77
2022-08-28T11:39:05.333Z,12.18
2022-08-28T11:41:36.510Z,8.98
2022-08-28T11:44:29.760Z,9.18
2022-08-28T11:47:36.263Z,12.23
2022-08-28T11:50:13.301Z,9.55
2022-08-28T11:52:58.729Z,12.30
2022-08-28T11:55:33.004Z,11.88
2022-08-28T12:00:52.915Z,10.40
2022-08-28T12:03:31.323Z,9.30
2022-08-28T12:06:00.983Z,11.20
2022-08-28T12:09:15.548Z,13.13
2022-08-28T12:11:52.763Z,11.90
2022-08-28T12:15:03.932Z,11.02
2022-08-28T12:17:53.201Z,8.30
2022-08-28T12:20:42.242Z,10.60
2022-08-28T12:23:45.053Z,8.25
2022-08-28T12:26:22.929Z,10.25
2022-08-28T12:28:55.217Z,8.50
2022-08-28T12:32:08.313Z,11.55
2022-08-28T12:34:44.443Z,7.78
2022-08-28T12:37:42.914Z,12.88
2022-08-28T12:40:23.192Z,9.25
2022-08-28T12:42:55.802Z,11.07
2022-08-28T12:45:28.339Z,7.47
2022-08-28T12:48:00.097Z,9.65
2022-08-28T12:50:34.025Z,9.23
2022-08-28T12:53:04.475Z,11.50
2022-08-28T12:55:33.816Z,8.20
2022-08-28T12:58:02.146Z,7.63
2022-08-28T13:00:37.255Z,8.32
2022-08-28T13:03:08.732Z,10.48
2022-08-28T13:05:41.151Z,7.45
2022-08-28T13:08:12.612Z,9.43
2022-08-28T13:10:44.424Z,10.32
2022-08-28T13:13:20.830Z,8.98
2022-08-28T13:15:53.484Z,11.18
2022-08-28T13:18:55.436Z,11.93
2022-08-28T13:21:35.227Z,8.43
2022-08-28T13:24:26.285Z,9.25
2022-08-28T13:27:03.401Z,10.60
2022-08-28T13:29:32.000Z,11.77
2022-08-28T13:32:02.223Z,10.57
2022-08-28T13:34:31.900Z,8.68
2022-08-28T13:37:07.307Z,10.23
2022-08-28T13:39:48.185Z,9.23
2022-08-28T13:42:18.200Z,8.13
2022-08-28T13:44:50.509Z,6.30
2022-08-28T13:47:18.555Z,10.50
2022-08-28T13:49:47.407Z,10.65
2022-08-28T13:52:16.976Z,8.95
2022-08-28T13:54:45.500Z,8.35
2022-08-28T13:57:14.564Z,9.15
2022-08-28T13:59:42.760Z,11.00
2022-08-28T14:02:31.288Z,8.90
2022-08-28T14:04:59.320Z,11.88
2022-08-28T14:07:29.449Z,8.40
2022-08-28T14:09:57.517Z,12.88
2022-08-28T14:12:32.737Z,10.32
2022-08-28T14:15:01.714Z,10.38
2022-08-28T14:17:29.884Z,8.85
2022-08-28T14:19:59.788Z,6.38
2022-08-28T14:22:30.940Z,11.30
2022-08-28T14:24:58.832Z,8.55
2022-08-28T14:27:26.705Z,8.40
2022-08-28T14:29:54.631Z,7.55
2022-08-28T14:32:22.740Z,8.20
2022-08-28T14:34:51.545Z,8.07
2022-08-28T14:37:19.759Z,8.23
2022-08-28T14:39:50.530Z,14.07
2022-08-28T14:42:19.354Z,9.52
2022-08-28T14:44:47.348Z,8.32
2022-08-28T14:47:15.284Z,8.05
2022-08-28T14:49:43.269Z,7.03
2022-08-28T14:52:11.701Z,10.85
2022-08-28T14:54:40.512Z,7.55
2022-08-28T14:57:11.807Z,10.02
2022-08-28T14:59:39.797Z,9.73
2022-08-28T15:02:07.780Z,7.82
2022-08-28T15:04:37.872Z,8.52
2022-08-28T15:07:08.237Z,7.97
2022-08-28T15:09:38.683Z,8.20
2022-08-28T15:12:07.436Z,7.32
2022-08-28T15:14:37.006Z,6.03
2022-08-28T15:17:05.758Z,12.38
2022-08-28T15:19:34.304Z,9.18
2022-08-28T15:22:04.238Z,9.95
2022-08-28T15:24:34.617Z,7.50
2022-08-28T15:27:07.101Z,12.38
2022-08-28T15:29:36.452Z,10.55
2022-08-28T15:32:04.843Z,7.55
2022-08-28T15:34:32.871Z,9.52
2022-08-28T15:37:01.704Z,9.27
2022-08-28T15:39:52.925Z,7.20
2022-08-28T15:42:20.985Z,12.02
2022-08-28T15:44:50.218Z,12.73
2022-08-28T15:47:18.272Z,11.32
2022-08-28T15:49:49.952Z,11.55
2022-08-28T15:52:20.672Z,11.07
2022-08-28T15:54:49.961Z,12.07
2022-08-28T15:57:18.572Z,8.88
2022-08-28T15:59:49.351Z,8.88
2022-08-28T16:02:21.598Z,8.10
2022-08-28T16:04:49.958Z,9.10
2022-08-28T16:07:18.852Z,9.00
2022-08-28T16:09:46.933Z,13.13
2022-08-28T16:12:15.512Z,14.40
2022-08-28T16:14:43.685Z,9.55
2022-08-28T16:17:11.704Z,10.57
2022-08-28T16:19:41.662Z,9.00
2022-08-28T16:22:09.641Z,8.85
2022-08-28T16:24:40.559Z,9.55
2022-08-28T16:27:13.236Z,12.23
2022-08-28T16:29:44.455Z,12.15
2022-08-28T16:32:12.684Z,9.18
2022-08-28T16:34:44.653Z,8.60
2022-08-28T16:37:14.333Z,11.82
2022-08-28T16:39:54.593Z,10.68
2022-08-28T16:42:22.792Z,9.02
2022-08-28T16:44:50.907Z,10.65
2022-08-28T16:47:18.784Z,17.73
2022-08-28T16:49:48.027Z,11.48
2022-08-28T16:52:15.971Z,12.52
2022-08-28T16:54:48.432Z,13.38
2022-08-28T16:57:16.569Z,14.70
2022-08-28T16:59:44.509Z,10.95
2022-08-28T17:02:13.289Z,13.30
2022-08-28T17:04:41.597Z,12.00
2022-08-28T17:07:10.896Z,14.13
2022-08-28T17:09:38.809Z,12.55
2022-08-28T17:12:07.308Z,9.98
2022-08-28T17:14:35.543Z,10.85
2022-08-28T17:17:03.508Z,13.68
2022-08-28T17:19:31.450Z,9.98
2022-08-28T17:22:16.793Z,9.30
2022-08-28T17:24:46.404Z,10.07
2022-08-28T17:27:16.818Z,12.07
2022-08-28T17:29:50.606Z,12.57
2022-08-28T17:32:18.592Z,13.23
2022-08-28T17:34:46.613Z,11.52
2022-08-28T17:37:14.679Z,14.45
2022-08-28T17:39:42.612Z,9.77
2022-08-28T17:42:11.872Z,12.15
2022-08-28T17:44:39.799Z,10.85
2022-08-28T17:47:08.069Z,14.27
2022-08-28T17:49:35.975Z,14.48
2022-08-28T17:52:04.525Z,10.45
2022-08-28T17:54:33.044Z,10.88
2022-08-28T17:57:01.313Z,10.98
2022-08-28T17:59:32.585Z,9.85
2022-08-28T18:02:01.413Z,12.00
2022-08-28T18:04:29.784Z,12.93
2022-08-28T18:06:58.451Z,11.23
2022-08-28T18:09:26.366Z,13.50
2022-08-28T18:11:54.324Z,11.15
2022-08-28T18:14:22.625Z,16.15
2022-08-28T18:16:52.049Z,13.00
2022-08-28T18:19:21.094Z,13.93
2022-08-28T18:21:49.270Z,14.73
2022-08-28T18:24:17.537Z,17.50
2022-08-28T18:26:47.596Z,11.48
2022-08-28T18:29:16.045Z,12.95
2022-08-28T18:31:44.562Z,14.48
2022-08-28T18:34:14.142Z,14.52
2022-08-28T18:36:42.744Z,12.60
2022-08-28T18:39:11.577Z,11.95
2022-08-28T18:41:43.620Z,14.82
2022-08-28T18:44:13.674Z,16.85
2022-08-28T18:46:42.085Z,12.70
2022-08-28T18:49:10.253Z,15.88
2022-08-28T18:51:40.711Z,13.63
2022-08-28T18:54:08.824Z,16.02
2022-08-28T18:56:38.357Z,14.40
2022-08-28T18:59:06.419Z,14.30
2022-08-28T19:01:34.780Z,14.75
2022-08-28T19:04:03.232Z,14.30
2022-08-28T19:06:31.648Z,14.68
2022-08-28T19:09:01.644Z,15.95
2022-08-28T19:11:31.345Z,12.15
2022-08-28T19:13:59.601Z,14.43
2022-08-28T19:16:32.798Z,17.45
2022-08-28T19:19:01.912Z,19.70
2022-08-28T19:21:30.232Z,22.67
2022-08-28T19:23:58.197Z,13.10
2022-08-28T19:26:28.684Z,14.25
2022-08-28T19:28:56.903Z,18.02
2022-08-28T19:31:26.925Z,19.52
2022-08-28T19:33:55.377Z,16.90
2022-08-28T19:36:27.046Z,22.23
2022-08-28T19:38:55.036Z,15.00
2022-08-28T19:41:23.139Z,17.95
2022-08-28T19:43:52.440Z,17.65
2022-08-28T19:46:20.723Z,16.15
2022-08-28T19:48:49.163Z,16.33
2022-08-28T19:51:22.200Z,21.88
2022-08-28T19:53:57.255Z,18.48
2022-08-28T19:56:28.045Z,20.35
2022-08-28T19:58:59.423Z,18.92
2022-08-28T20:01:29.468Z,20.52
2022-08-28T20:03:58.151Z,17.48
2022-08-28T20:06:26.793Z,19.38
2022-08-28T20:08:54.675Z,20.48
2022-08-28T20:11:25.292Z,21.27
2022-08-28T20:14:03.933Z,18.02
2022-08-28T20:16:35.298Z,17.98
2022-08-28T20:19:03.997Z,17.83
2022-08-28T20:21:37.052Z,15.65
2022-08-28T20:24:07.384Z,16.85
2022-08-28T20:26:35.693Z,17.52
2022-08-28T20:29:05.968Z,14.85
2022-08-28T20:31:33.981Z,17.05
2022-08-28T20:34:01.863Z,17.00
2022-08-28T20:36:29.966Z,14.95
2022-08-28T20:38:58.205Z,15.57
2022-08-28T20:41:26.269Z,15.90
2022-08-28T20:43:54.394Z,17.27
2022-08-28T20:46:23.777Z,21.00
2022-08-28T20:48:51.792Z,24.10
2022-08-28T20:51:40.507Z,14.98
2022-08-28T20:54:08.364Z,20.33
2022-08-28T20:56:36.254Z,17.38
2022-08-28T20:59:04.510Z,16.63
2022-08-28T21:01:34.904Z,19.70
2022-08-28T21:04:03.634Z,21.67
2022-08-28T21:06:32.113Z,20.17
2022-08-28T21:09:00.282Z,18.33
2022-08-28T21:11:29.438Z,19.73
2022-08-28T21:13:57.336Z,20.08
2022-08-28T21:16:25.285Z,18.90
2022-08-28T21:19:14.833Z,17.30
2022-08-28T21:21:43.714Z,20.13
2022-08-28T21:24:13.912Z,20.63
2022-08-28T21:26:43.250Z,18.20
2022-08-28T21:29:12.709Z,19.55
2022-08-28T21:31:42.668Z,19.27
2022-08-28T21:34:13.915Z,21.00
2022-08-28T21:36:48.220Z,15.57
2022-08-28T21:39:20.945Z,19.75
2022-08-28T21:41:49.210Z,20.30
2022-08-28T21:44:17.567Z,17.63
2022-08-28T21:46:45.513Z,18.70
2022-08-28T21:49:14.723Z,16.38
2022-08-28T21:51:42.732Z,17.05
2022-08-28T21:54:10.626Z,18.60
2022-08-28T21:56:38.677Z,23.15
2022-08-28T21:59:06.635Z,17.30
2022-08-28T22:01:35.428Z,22.05
2022-08-28T22:04:03.956Z,19.55
2022-08-28T22:06:33.605Z,22.08
2022-08-28T22:09:02.312Z,20.17
2022-08-28T22:11:31.030Z,20.77
2022-08-28T22:13:58.906Z,23.02
2022-08-28T22:16:28.814Z,20.95
2022-08-28T22:18:56.740Z,18.60
2022-08-28T22:21:44.709Z,15.02
2022-08-28T22:24:14.627Z,23.35
2022-08-28T22:26:44.020Z,18.50
2022-08-28T22:29:12.960Z,18.55
2022-08-28T22:31:45.421Z,18.90
2022-08-28T22:34:14.931Z,16.23
2022-08-28T22:36:42.820Z,14.45
2022-08-28T22:39:10.726Z,17.25
2022-08-28T22:41:40.445Z,18.38
2022-08-28T22:44:08.644Z,14.80
2022-08-28T22:46:36.583Z,17.63
2022-08-28T22:49:04.832Z,18.85
2022-08-28T22:51:34.955Z,16.77
2022-08-28T22:54:02.953Z,18.95
2022-08-28T22:56:30.883Z,16.92
2022-08-28T22:59:00.468Z,18.83
2022-08-28T23:01:28.844Z,18.00
2022-08-28T23:03:57.764Z,21.83
2022-08-28T23:06:25.714Z,17.38
2022-08-28T23:08:53.630Z,16.50
2022-08-28T23:11:21.591Z,16.80
2022-08-28T23:13:49.558Z,17.67
2022-08-28T23:16:23.979Z,15.13
2022-08-28T23:19:09.249Z,18.48
2022-08-28T23:21:40.760Z,17.52
2022-08-28T23:24:11.947Z,16.48
2022-08-28T23:26:39.832Z,17.70
2022-08-28T23:29:07.815Z,14.95
2022-08-28T23:31:37.566Z,17.65
2022-08-28T23:34:05.975Z,15.50
2022-08-28T23:36:35.881Z,16.48
2022-08-28T23:39:06.017Z,14.38
2022-08-28T23:41:34.626Z,12.63
2022-08-28T23:44:07.815Z,14.25
2022-08-28T23:46:41.226Z,12.93
2022-08-28T23:49:09.793Z,12.93
2022-08-28T23:51:38.020Z,14.32
2022-08-28T23:54:07.060Z,13.82
2022-08-28T23:56:35.208Z,12.30
2022-08-28T23:59:03.332Z,12.77
